createdAt,value
2022-11-19T00:02:07.709Z,1.83
2022-11-19T00:04:35.470Z,1.23
2022-11-19T00:07:03.101Z,2.28
2022-11-19T00:09:30.734Z,3.08
2022-11-19T00:12:16.206Z,4.07
2022-11-19T00:14:45.193Z,2.58
2022-11-19T00:17:12.860Z,2.53
2022-11-19T00:19:40.455Z,3.42
2022-11-19T00:22:08.046Z,2.00
2022-11-19T00:24:35.648Z,2.42
2022-11-19T00:27:03.280Z,4.45
2022-11-19T00:29:30.874Z,2.85
2022-11-19T00:31:59.914Z,3.15
2022-11-19T00:34:27.528Z,4.45
2022-11-19T00:36:55.162Z,3.42
2022-11-19T00:39:23.006Z,2.83
2022-11-19T00:41:50.710Z,3.63
2022-11-19T00:44:18.305Z,1.90
2022-11-19T00:46:46.141Z,3.45
2022-11-19T00:49:15.217Z,2.30
2022-11-19T00:51:42.821Z,4.35
2022-11-19T00:54:10.368Z,2.30
2022-11-19T00:56:38.009Z,4.85
2022-11-19T00:59:05.880Z,2.15
2022-11-19T01:01:33.724Z,3.70
2022-11-19T01:04:01.444Z,3.22
2022-11-19T01:06:30.552Z,3.90
2022-11-19T01:08:58.172Z,2.75
2022-11-19T01:11:27.933Z,4.30
2022-11-19T01:13:55.713Z,2.63
2022-11-19T01:16:26.945Z,1.60
2022-11-19T01:18:54.886Z,1.30
2022-11-19T01:21:25.712Z,4.63
2022-11-19T01:23:54.640Z,1.55
2022-11-19T01:26:22.665Z,4.03
2022-11-19T01:28:50.307Z,3.17
2022-11-19T01:31:20.586Z,2.35
2022-11-19T01:33:48.445Z,1.65
2022-11-19T01:36:18.126Z,4.38
2022-11-19T01:38:50.528Z,3.95
2022-11-19T01:41:20.248Z,2.30
2022-11-19T01:43:50.610Z,2.47
2022-11-19T01:46:20.201Z,3.53
2022-11-19T01:48:51.552Z,4.70
2022-11-19T01:51:23.876Z,3.85
2022-11-19T01:53:54.894Z,3.80
2022-11-19T01:56:24.544Z,4.82
2022-11-19T01:58:56.238Z,6.18
2022-11-19T02:01:24.418Z,5.05
2022-11-19T02:03:53.169Z,4.90
2022-11-19T02:06:20.936Z,3.30
2022-11-19T02:08:51.442Z,3.88
2022-11-19T02:11:44.277Z,2.70
2022-11-19T02:14:28.857Z,3.42
2022-11-19T02:17:04.573Z,6.25
2022-11-19T02:19:53.906Z,5.75
2022-11-19T02:22:40.042Z,5.28
2022-11-19T02:25:19.664Z,3.33
2022-11-19T02:28:25.601Z,2.50
2022-11-19T02:30:58.818Z,2.17
2022-11-19T02:33:30.819Z,3.50
2022-11-19T02:36:03.541Z,2.70
2022-11-19T02:38:38.981Z,3.33
2022-11-19T02:41:29.671Z,3.10
2022-11-19T02:44:18.187Z,2.13
2022-11-19T02:46:50.440Z,2.75
2022-11-19T02:49:20.597Z,3.13
2022-11-19T02:51:50.140Z,4.47
2022-11-19T02:54:18.693Z,2.38
2022-11-19T02:56:52.808Z,1.38
2022-11-19T02:59:43.301Z,3.90
2022-11-19T03:02:32.946Z,2.53
2022-11-19T03:05:01.732Z,5.88
2022-11-19T03:07:29.410Z,2.13
2022-11-19T03:10:00.718Z,3.60
2022-11-19T03:12:38.409Z,2.53
2022-11-19T03:15:36.596Z,3.47
2022-11-19T03:18:11.169Z,3.17
2022-11-19T03:20:42.539Z,3.55
2022-11-19T03:23:14.661Z,4.60
2022-11-19T03:25:46.572Z,4.10
2022-11-19T03:28:18.462Z,5.03
2022-11-19T03:30:48.395Z,3.70
2022-11-19T03:33:22.749Z,4.47
2022-11-19T03:35:54.270Z,2.72
2022-11-19T03:38:28.626Z,3.53
2022-11-19T03:40:57.927Z,4.57
2022-11-19T03:43:30.544Z,4.43
2022-11-19T03:46:03.264Z,4.45
2022-11-19T03:48:32.828Z,5.43
2022-11-19T03:51:07.386Z,7.93
2022-11-19T03:53:35.057Z,4.05
2022-11-19T03:56:05.200Z,3.90
2022-11-19T03:58:39.152Z,7.32
2022-11-19T04:01:07.126Z,4.65
2022-11-19T04:03:36.114Z,6.03
2022-11-19T04:06:03.909Z,4.43
2022-11-19T04:08:31.792Z,5.32
2022-11-19T04:13:26.559Z,4.30
2022-11-19T04:15:54.102Z,4.75
2022-11-19T04:18:21.728Z,3.25
2022-11-19T04:20:50.626Z,3.67
2022-11-19T04:23:18.185Z,3.35
2022-11-19T04:25:47.127Z,3.47
2022-11-19T04:28:14.784Z,6.40
2022-11-19T04:30:43.441Z,5.18
2022-11-19T04:33:11.108Z,4.45
2022-11-19T04:35:38.661Z,3.45
2022-11-19T04:38:07.589Z,4.30
2022-11-19T04:40:35.213Z,4.43
2022-11-19T04:43:02.751Z,3.85
2022-11-19T04:45:30.380Z,5.50
2022-11-19T04:47:58.072Z,4.05
2022-11-19T04:50:25.690Z,4.25
2022-11-19T04:52:53.328Z,2.70
2022-11-19T04:55:22.352Z,4.53
2022-11-19T04:57:51.767Z,4.85
2022-11-19T05:00:19.777Z,4.35
2022-11-19T05:02:47.384Z,4.75
2022-11-19T05:05:15.076Z,4.13
2022-11-19T05:07:42.681Z,6.20
2022-11-19T05:10:11.558Z,4.43
2022-11-19T05:12:40.503Z,3.60
2022-11-19T05:15:09.287Z,3.60
2022-11-19T05:17:36.894Z,4.72
2022-11-19T05:20:05.193Z,4.03
2022-11-19T05:22:32.879Z,3.22
2022-11-19T05:25:00.459Z,4.78
2022-11-19T05:27:28.013Z,3.05
2022-11-19T05:29:57.044Z,3.85
2022-11-19T05:32:24.660Z,3.45
2022-11-19T05:34:52.338Z,4.07
2022-11-19T05:37:19.906Z,4.10
2022-11-19T05:39:47.519Z,3.60
2022-11-19T05:42:15.192Z,4.43
2022-11-19T05:44:42.760Z,5.40
2022-11-19T05:47:11.829Z,4.65
2022-11-19T05:49:39.385Z,6.45
2022-11-19T05:52:07.117Z,3.13
2022-11-19T05:54:34.916Z,3.33
2022-11-19T05:57:02.827Z,3.22
2022-11-19T05:59:30.449Z,4.63
2022-11-19T06:01:58.338Z,3.92
2022-11-19T06:04:27.365Z,5.57
2022-11-19T06:06:54.976Z,3.75
2022-11-19T06:09:22.790Z,5.95
2022-11-19T06:11:51.036Z,5.55
2022-11-19T06:14:21.944Z,3.53
2022-11-19T06:16:51.238Z,5.72
2022-11-19T06:19:19.290Z,4.85
2022-11-19T06:21:48.867Z,5.35
2022-11-19T06:24:16.734Z,4.55
2022-11-19T06:26:44.574Z,4.93
2022-11-19T06:29:14.562Z,4.65
2022-11-19T06:31:42.506Z,4.93
2022-11-19T06:34:10.432Z,4.88
2022-11-19T06:36:42.725Z,5.05
2022-11-19T06:39:13.979Z,5.78
2022-11-19T06:41:41.630Z,6.38
2022-11-19T06:44:09.334Z,5.07
2022-11-19T06:46:37.026Z,7.45
2022-11-19T06:49:05.727Z,9.07
2022-11-19T06:51:33.469Z,4.68
2022-11-19T06:54:01.169Z,8.52
2022-11-19T06:56:30.209Z,4.93
2022-11-19T06:58:58.844Z,5.63
2022-11-19T07:01:26.654Z,4.22
2022-11-19T07:03:54.303Z,10.82
2022-11-19T07:06:21.916Z,4.63
2022-11-19T07:08:49.523Z,7.20
2022-11-19T07:11:29.248Z,3.38
2022-11-19T07:13:59.646Z,5.00
2022-11-19T07:16:29.860Z,5.20
2022-11-19T07:18:58.573Z,4.20
2022-11-19T07:21:26.527Z,6.60
2022-11-19T07:23:55.284Z,4.43
2022-11-19T07:26:23.026Z,6.40
2022-11-19T07:28:50.765Z,6.05
2022-11-19T07:31:19.940Z,4.70
2022-11-19T07:33:47.769Z,7.85
2022-11-19T07:36:18.354Z,7.80
2022-11-19T07:38:46.957Z,6.82
2022-11-19T07:41:28.666Z,6.10
2022-11-19T07:43:56.407Z,7.35
2022-11-19T07:46:25.422Z,5.28
2022-11-19T07:48:54.949Z,4.50
2022-11-19T07:51:23.271Z,7.57
2022-11-19T07:53:51.737Z,3.72
2022-11-19T07:56:20.164Z,9.73
2022-11-19T07:58:48.193Z,9.88
2022-11-19T08:01:18.632Z,4.68
2022-11-19T08:03:53.254Z,8.50
2022-11-19T08:06:25.852Z,5.60
2022-11-19T08:08:54.958Z,5.75
2022-11-19T08:11:22.618Z,3.97
2022-11-19T08:13:50.168Z,5.38
2022-11-19T08:16:38.591Z,5.70
2022-11-19T08:19:09.480Z,4.95
2022-11-19T08:21:38.020Z,9.63
2022-11-19T08:24:06.001Z,5.82
2022-11-19T08:26:33.624Z,7.22
2022-11-19T08:29:01.218Z,3.90
2022-11-19T08:31:28.887Z,5.22
2022-11-19T08:33:56.816Z,6.55
2022-11-19T08:36:25.771Z,4.53
2022-11-19T08:38:53.410Z,6.65
2022-11-19T08:41:38.756Z,5.43
2022-11-19T08:44:06.628Z,6.40
2022-11-19T08:46:34.371Z,9.57
2022-11-19T08:49:02.004Z,7.88
2022-11-19T08:51:31.130Z,5.10
2022-11-19T08:53:58.870Z,4.50
2022-11-19T08:56:26.591Z,4.00
2022-11-19T08:58:59.814Z,3.67
2022-11-19T09:01:29.125Z,3.65
2022-11-19T09:03:56.796Z,4.07
2022-11-19T09:06:24.398Z,4.50
2022-11-19T09:08:53.827Z,3.15
2022-11-19T09:11:22.622Z,4.43
2022-11-19T09:13:50.305Z,6.43
2022-11-19T09:16:18.386Z,3.22
2022-11-19T09:18:46.028Z,4.18
2022-11-19T09:21:13.845Z,3.78
2022-11-19T09:23:42.533Z,4.57
2022-11-19T09:26:13.732Z,2.55
2022-11-19T09:28:42.501Z,3.85
2022-11-19T09:31:13.048Z,5.53
2022-11-19T09:33:43.047Z,6.38
2022-11-19T09:36:11.610Z,4.25
2022-11-19T09:38:40.782Z,3.08
2022-11-19T09:41:44.623Z,3.90
2022-11-19T09:44:33.216Z,1.85
2022-11-19T09:47:15.536Z,2.70
2022-11-19T09:49:48.110Z,5.03
2022-11-19T09:52:19.501Z,6.10
2022-11-19T09:54:50.209Z,5.88
2022-11-19T09:57:25.435Z,5.60
2022-11-19T09:59:56.504Z,2.70
2022-11-19T10:02:24.641Z,3.58
2022-11-19T10:04:52.948Z,3.22
2022-11-19T10:07:34.253Z,5.90
2022-11-19T10:10:16.622Z,6.88
2022-11-19T10:13:11.504Z,3.45
2022-11-19T10:15:53.965Z,8.57
2022-11-19T10:18:30.032Z,2.95
2022-11-19T10:21:05.716Z,3.80
2022-11-19T10:23:45.469Z,3.88
2022-11-19T10:26:16.042Z,4.43
2022-11-19T10:28:52.554Z,3.95
2022-11-19T10:31:29.606Z,4.80
2022-11-19T10:34:03.805Z,3.78
2022-11-19T10:36:37.924Z,4.40
2022-11-19T10:39:13.687Z,5.20
2022-11-19T10:41:47.003Z,8.10
2022-11-19T10:47:04.538Z,7.50
2022-11-19T10:49:35.851Z,6.78
2022-11-19T10:52:03.827Z,6.03
2022-11-19T10:54:32.208Z,4.32
2022-11-19T10:57:01.302Z,3.90
2022-11-19T10:59:32.786Z,3.35
2022-11-19T11:02:03.861Z,4.65
2022-11-19T11:04:31.565Z,5.18
2022-11-19T11:07:01.824Z,5.88
2022-11-19T11:09:32.209Z,4.78
2022-11-19T11:12:22.911Z,4.60
2022-11-19T11:15:00.228Z,3.80
2022-11-19T11:17:30.061Z,3.75
2022-11-19T11:20:03.198Z,5.22
2022-11-19T11:22:31.878Z,4.53
2022-11-19T11:25:06.845Z,4.78
2022-11-19T11:27:36.472Z,4.07
2022-11-19T11:30:17.671Z,5.00
2022-11-19T11:32:45.438Z,4.57
2022-11-19T11:35:32.577Z,6.97
2022-11-19T11:38:01.060Z,9.65
2022-11-19T11:40:29.759Z,5.88
2022-11-19T11:42:57.625Z,5.50
2022-11-19T11:45:31.929Z,5.07
2022-11-19T11:48:06.054Z,4.30
2022-11-19T11:50:33.840Z,9.00
2022-11-19T11:53:09.558Z,7.05
2022-11-19T11:55:38.474Z,5.88
2022-11-19T11:58:24.373Z,7.28
2022-11-19T12:00:55.063Z,5.55
2022-11-19T12:03:23.447Z,8.60
2022-11-19T12:06:03.716Z,7.03
2022-11-19T12:08:47.473Z,4.63
2022-11-19T12:14:10.880Z,3.95
2022-11-19T12:16:50.350Z,6.00
2022-11-19T12:19:34.119Z,4.35
2022-11-19T12:22:14.550Z,8.90
2022-11-19T12:25:04.555Z,6.63
2022-11-19T12:27:38.735Z,7.00
2022-11-19T12:30:12.492Z,6.85
2022-11-19T12:33:02.942Z,5.07
2022-11-19T12:35:42.926Z,5.75
2022-11-19T12:38:25.888Z,7.63
2022-11-19T12:41:04.312Z,8.47
2022-11-19T12:43:51.108Z,7.25
2022-11-19T12:46:27.888Z,5.38
2022-11-19T12:49:10.161Z,7.03
2022-11-19T12:51:52.066Z,8.32
2022-11-19T12:54:35.127Z,12.50
2022-11-19T12:57:17.372Z,5.93
2022-11-19T13:00:12.790Z,6.55
2022-11-19T13:02:48.440Z,5.25
2022-11-19T13:05:20.631Z,7.55
2022-11-19T13:07:53.791Z,8.45
2022-11-19T13:10:25.661Z,7.60
2022-11-19T13:12:56.593Z,12.73
2022-11-19T13:15:29.743Z,12.40
2022-11-19T13:18:00.861Z,8.00
2022-11-19T13:20:40.640Z,13.25
2022-11-19T13:23:11.826Z,16.80
2022-11-19T13:25:43.574Z,9.38
2022-11-19T13:28:21.323Z,5.85
2022-11-19T13:30:53.456Z,11.35
2022-11-19T13:33:27.303Z,6.90
2022-11-19T13:36:03.385Z,11.75
2022-11-19T13:38:38.287Z,8.15
2022-11-19T13:41:12.127Z,11.65
2022-11-19T13:43:58.138Z,11.70
2022-11-19T13:46:29.179Z,5.53
2022-11-19T13:49:01.983Z,7.82
2022-11-19T13:51:37.529Z,7.40
2022-11-19T13:54:07.952Z,6.30
2022-11-19T13:56:42.717Z,12.95
2022-11-19T13:59:25.721Z,14.30
2022-11-19T14:02:11.362Z,7.38
2022-11-19T14:04:57.008Z,6.60
2022-11-19T14:07:39.259Z,7.07
2022-11-19T14:10:16.473Z,7.10
2022-11-19T14:13:03.581Z,5.95
2022-11-19T14:16:15.489Z,7.57
2022-11-19T14:19:04.826Z,8.25
2022-11-19T14:22:03.333Z,8.93
2022-11-19T14:25:11.872Z,7.57
2022-11-19T14:27:39.881Z,10.60
2022-11-19T14:30:10.233Z,9.77
2022-11-19T14:32:46.443Z,11.02
2022-11-19T14:35:41.706Z,6.55
2022-11-19T14:38:32.445Z,12.30
2022-11-19T14:41:17.896Z,8.32
2022-11-19T14:44:11.407Z,9.55
2022-11-19T14:46:41.666Z,9.30
2022-11-19T14:49:24.196Z,14.05
2022-11-19T14:51:55.251Z,9.10
2022-11-19T14:54:32.093Z,11.98
2022-11-19T14:57:16.699Z,9.93
2022-11-19T14:59:49.021Z,11.10
2022-11-19T15:02:24.918Z,11.82
2022-11-19T15:04:57.713Z,11.57
2022-11-19T15:07:40.463Z,11.82
2022-11-19T15:10:27.087Z,10.88
2022-11-19T15:13:17.300Z,13.70
2022-11-19T15:15:45.859Z,11.80
2022-11-19T15:18:30.871Z,15.63
2022-11-19T15:21:12.885Z,14.00
2022-11-19T15:23:49.598Z,17.30
2022-11-19T15:26:24.129Z,15.43
2022-11-19T15:29:06.166Z,15.10
2022-11-19T15:31:57.373Z,12.15
2022-11-19T15:35:09.770Z,14.15
2022-11-19T15:37:48.259Z,13.00
2022-11-19T15:40:20.390Z,12.05
2022-11-19T15:42:55.274Z,11.18
2022-11-19T15:45:25.343Z,12.48
2022-11-19T15:47:57.262Z,10.10
2022-11-19T15:50:27.709Z,9.98
2022-11-19T15:52:59.596Z,9.80
2022-11-19T15:55:30.529Z,13.27
2022-11-19T15:58:02.931Z,14.68
2022-11-19T16:00:32.807Z,13.32
2022-11-19T16:03:03.692Z,13.63
2022-11-19T16:05:32.639Z,11.55
2022-11-19T16:08:06.369Z,10.73
2022-11-19T16:10:36.266Z,9.43
2022-11-19T16:13:37.941Z,9.30
2022-11-19T16:16:34.409Z,8.40
2022-11-19T16:19:02.163Z,7.57
2022-11-19T16:21:34.566Z,9.23
2022-11-19T16:24:20.314Z,8.88
2022-11-19T16:26:49.314Z,9.15
2022-11-19T16:29:19.048Z,9.82
2022-11-19T16:31:50.326Z,8.95
2022-11-19T16:34:23.285Z,7.18
2022-11-19T16:36:51.757Z,8.63
2022-11-19T16:39:23.686Z,8.27
2022-11-19T16:42:22.386Z,8.18
2022-11-19T16:44:54.020Z,9.40
2022-11-19T16:47:28.290Z,10.45
2022-11-19T16:50:00.654Z,7.35
2022-11-19T16:52:43.081Z,10.30
2022-11-19T16:55:40.412Z,6.15
2022-11-19T16:58:16.072Z,6.55
2022-11-19T17:00:48.961Z,10.63
2022-11-19T17:03:29.095Z,10.27
2022-11-19T17:05:58.460Z,5.22
2022-11-19T17:08:29.877Z,5.38
2022-11-19T17:11:47.166Z,4.70
2022-11-19T17:14:21.169Z,6.15
2022-11-19T17:16:50.698Z,4.82
2022-11-19T17:19:28.771Z,5.70
2022-11-19T17:21:59.598Z,5.35
2022-11-19T17:24:28.913Z,5.22
2022-11-19T17:26:56.976Z,5.13
2022-11-19T17:29:25.397Z,5.90
2022-11-19T17:31:55.754Z,5.93
2022-11-19T17:34:43.500Z,6.30
2022-11-19T17:37:11.180Z,7.43
2022-11-19T17:39:38.810Z,8.40
2022-11-19T17:42:24.086Z,11.20
2022-11-19T17:44:51.720Z,8.70
2022-11-19T17:47:23.151Z,7.22
2022-11-19T17:49:53.324Z,9.45
2022-11-19T17:52:23.559Z,6.55
2022-11-19T17:54:52.367Z,8.43
2022-11-19T17:57:20.273Z,7.20
2022-11-19T17:59:48.017Z,7.28
2022-11-19T18:02:17.733Z,8.20
2022-11-19T18:04:46.517Z,6.88
2022-11-19T18:07:15.895Z,9.55
2022-11-19T18:09:43.667Z,10.18
2022-11-19T18:12:16.364Z,9.65
2022-11-19T18:14:44.298Z,10.10
2022-11-19T18:17:12.742Z,9.40
2022-11-19T18:19:40.378Z,14.18
2022-11-19T18:22:18.040Z,9.13
2022-11-19T18:24:47.707Z,10.43
2022-11-19T18:27:15.795Z,8.48
2022-11-19T18:29:43.429Z,10.57
2022-11-19T18:32:11.673Z,9.77
2022-11-19T18:34:39.472Z,9.98
2022-11-19T18:37:07.109Z,8.68
2022-11-19T18:39:36.040Z,11.65
2022-11-19T18:42:03.655Z,8.70
2022-11-19T18:44:33.366Z,11.75
2022-11-19T18:47:01.331Z,8.93
2022-11-19T18:49:29.250Z,13.65
2022-11-19T18:51:57.489Z,12.98
2022-11-19T18:54:25.167Z,12.45
2022-11-19T18:56:54.215Z,9.68
2022-11-19T18:59:22.423Z,10.43
2022-11-19T19:01:52.092Z,10.70
2022-11-19T19:04:19.943Z,9.10
2022-11-19T19:06:47.674Z,8.07
2022-11-19T19:09:20.221Z,8.30
2022-11-19T19:12:12.328Z,7.15
2022-11-19T19:14:42.497Z,7.30
2022-11-19T19:17:10.286Z,9.38
2022-11-19T19:19:38.108Z,7.05
2022-11-19T19:22:05.870Z,7.30
2022-11-19T19:24:33.772Z,7.25
2022-11-19T19:27:02.077Z,6.50
2022-11-19T19:29:29.735Z,8.82
2022-11-19T19:31:59.263Z,9.48
2022-11-19T19:34:26.872Z,10.23
2022-11-19T19:36:54.577Z,11.40
2022-11-19T19:39:22.429Z,10.43
2022-11-19T19:41:50.132Z,9.00
2022-11-19T19:44:18.243Z,10.35
2022-11-19T19:46:48.268Z,7.82
2022-11-19T19:49:17.292Z,10.13
2022-11-19T19:51:44.974Z,8.88
2022-11-19T19:54:12.557Z,8.02
2022-11-19T19:56:41.345Z,8.50
2022-11-19T19:59:10.271Z,9.70
2022-11-19T20:01:38.126Z,10.23
2022-11-19T20:04:08.315Z,8.57
2022-11-19T20:06:39.161Z,8.63
2022-11-19T20:09:08.914Z,8.70
2022-11-19T20:11:37.641Z,8.82
2022-11-19T20:14:05.477Z,10.80
2022-11-19T20:16:34.966Z,11.13
2022-11-19T20:19:03.260Z,9.75
2022-11-19T20:21:34.021Z,9.98
2022-11-19T20:24:08.700Z,9.70
2022-11-19T20:26:40.556Z,9.70
2022-11-19T20:29:08.920Z,8.73
2022-11-19T20:31:36.721Z,10.77
2022-11-19T20:34:06.247Z,10.15
2022-11-19T20:36:35.964Z,10.93
2022-11-19T20:39:06.498Z,11.35
2022-11-19T20:41:52.016Z,10.90
2022-11-19T20:44:23.508Z,13.23
2022-11-19T20:46:53.275Z,12.20
2022-11-19T20:49:22.948Z,10.18
2022-11-19T20:51:52.490Z,11.38
2022-11-19T20:54:22.348Z,10.88
2022-11-19T20:56:51.387Z,13.15
2022-11-19T20:59:20.138Z,11.38
2022-11-19T21:01:49.392Z,10.52
2022-11-19T21:04:17.579Z,16.30
2022-11-19T21:06:45.273Z,16.85
2022-11-19T21:09:14.709Z,11.98
2022-11-19T21:11:43.932Z,13.43
2022-11-19T21:14:12.407Z,12.88
2022-11-19T21:16:39.990Z,13.15
2022-11-19T21:19:07.657Z,10.02
2022-11-19T21:21:35.425Z,11.02
2022-11-19T21:24:03.110Z,10.02
2022-11-19T21:26:31.174Z,11.70
2022-11-19T21:29:00.900Z,12.95
2022-11-19T21:31:39.657Z,13.15
2022-11-19T21:34:08.766Z,12.90
2022-11-19T21:36:37.095Z,12.75
2022-11-19T21:39:05.338Z,13.52
2022-11-19T21:41:33.782Z,12.10
2022-11-19T21:44:03.626Z,12.77
2022-11-19T21:46:31.997Z,12.65
2022-11-19T21:48:59.798Z,11.70
2022-11-19T21:51:27.378Z,11.75
2022-11-19T21:53:56.205Z,9.95
2022-11-19T21:56:24.199Z,10.75
2022-11-19T21:58:51.969Z,12.20
2022-11-19T22:01:21.084Z,10.95
2022-11-19T22:03:49.042Z,9.63
2022-11-19T22:06:16.687Z,11.10
2022-11-19T22:08:44.544Z,10.88
2022-11-19T22:11:31.929Z,10.43
2022-11-19T22:14:01.791Z,10.63
2022-11-19T22:16:32.558Z,9.57
2022-11-19T22:19:00.207Z,10.88
2022-11-19T22:21:29.044Z,11.82
2022-11-19T22:23:57.056Z,9.40
2022-11-19T22:26:25.067Z,11.57
2022-11-19T22:28:52.763Z,11.40
2022-11-19T22:31:20.421Z,10.73
2022-11-19T22:33:51.742Z,11.68
2022-11-19T22:36:21.669Z,11.48
2022-11-19T22:38:49.378Z,10.43
2022-11-19T22:41:21.423Z,10.07
2022-11-19T22:43:49.437Z,11.82
2022-11-19T22:46:17.556Z,12.13
2022-11-19T22:48:45.236Z,11.63
2022-11-19T22:51:16.182Z,11.68
2022-11-19T22:53:44.367Z,13.60
2022-11-19T22:56:13.595Z,12.68
2022-11-19T22:58:41.918Z,14.30
2022-11-19T23:01:16.434Z,12.32
2022-11-19T23:03:44.439Z,14.63
2022-11-19T23:06:12.341Z,16.45
2022-11-19T23:08:46.161Z,16.38
2022-11-19T23:11:38.040Z,15.70
2022-11-19T23:14:04.794Z,15.70
2022-11-19T23:16:32.429Z,18.33
2022-11-19T23:19:00.131Z,15.65
2022-11-19T23:21:29.677Z,15.25
2022-11-19T23:23:58.198Z,15.35
2022-11-19T23:26:29.208Z,14.93
2022-11-19T23:28:57.433Z,15.60
2022-11-19T23:31:26.453Z,12.57
2022-11-19T23:33:58.979Z,14.20
2022-11-19T23:36:29.409Z,14.98
2022-11-19T23:38:57.401Z,14.18
2022-11-19T23:41:25.306Z,12.60
2022-11-19T23:43:56.055Z,13.23
2022-11-19T23:46:26.315Z,13.93
2022-11-19T23:48:55.775Z,12.25
2022-11-19T23:51:25.170Z,14.50
2022-11-19T23:53:53.021Z,10.80
2022-11-19T23:56:22.279Z,14.25
2022-11-19T23:58:50.137Z,11.95
